sensor_id;sensor_type;location;lat;lon;timestamp;P1;durP1;ratioP1;P2;durP2;ratioP2
49392;SDS011;35268;42.642;23.308;2022-09-09T00:04:19;13.55;;;8.43;;
49392;SDS011;35268;42.642;23.308;2022-09-09T00:09:39;13.18;;;7.63;;
49392;SDS011;35268;42.642;23.308;2022-09-09T00:12:11;12.35;;;7.80;;
49392;SDS011;35268;42.642;23.308;2022-09-09T00:23:12;11.80;;;7.63;;
49392;SDS011;35268;42.642;23.308;2022-09-09T00:28:33;11.88;;;6.65;;
49392;SDS011;35268;42.642;23.308;2022-09-09T00:31:13;9.80;;;7.30;;
49392;SDS011;35268;42.642;23.308;2022-09-09T00:33:44;10.63;;;7.30;;
49392;SDS011;35268;42.642;23.308;2022-09-09T00:36:12;9.98;;;6.80;;
49392;SDS011;35268;42.642;23.308;2022-09-09T00:43:57;11.90;;;7.40;;
49392;SDS011;35268;42.642;23.308;2022-09-09T00:54:40;9.70;;;7.47;;
49392;SDS011;35268;42.642;23.308;2022-09-09T00:57:29;14.05;;;7.43;;
49392;SDS011;35268;42.642;23.308;2022-09-09T00:59:58;14.57;;;8.05;;
49392;SDS011;35268;42.642;23.308;2022-09-09T01:02:42;9.77;;;6.82;;
49392;SDS011;35268;42.642;23.308;2022-09-09T01:10:58;9.43;;;6.80;;
49392;SDS011;35268;42.642;23.308;2022-09-09T01:13:26;9.57;;;6.68;;
49392;SDS011;35268;42.642;23.308;2022-09-09T01:15:56;10.60;;;7.35;;
49392;SDS011;35268;42.642;23.308;2022-09-09T01:18:26;11.38;;;7.57;;
49392;SDS011;35268;42.642;23.308;2022-09-09T01:26:04;11.18;;;7.63;;
49392;SDS011;35268;42.642;23.308;2022-09-09T01:28:33;18.48;;;7.22;;
49392;SDS011;35268;42.642;23.308;2022-09-09T01:31:00;18.55;;;8.55;;
49392;SDS011;35268;42.642;23.308;2022-09-09T01:33:27;16.77;;;7.30;;
49392;SDS011;35268;42.642;23.308;2022-09-09T01:38:28;11.63;;;7.53;;
49392;SDS011;35268;42.642;23.308;2022-09-09T01:40:55;11.55;;;8.07;;
49392;SDS011;35268;42.642;23.308;2022-09-09T01:43:21;14.02;;;7.45;;
49392;SDS011;35268;42.642;23.308;2022-09-09T01:45:49;11.15;;;7.25;;
49392;SDS011;35268;42.642;23.308;2022-09-09T01:48:18;13.50;;;7.53;;
49392;SDS011;35268;42.642;23.308;2022-09-09T01:50:44;14.32;;;7.75;;
49392;SDS011;35268;42.642;23.308;2022-09-09T01:53:09;13.82;;;8.45;;
49392;SDS011;35268;42.642;23.308;2022-09-09T01:55:40;13.45;;;7.82;;
49392;SDS011;35268;42.642;23.308;2022-09-09T02:03:41;11.38;;;7.80;;
49392;SDS011;35268;42.642;23.308;2022-09-09T02:06:31;10.83;;;7.63;;
49392;SDS011;35268;42.642;23.308;2022-09-09T02:09:01;27.30;;;9.13;;
49392;SDS011;35268;42.642;23.308;2022-09-09T02:11:30;14.88;;;7.63;;
49392;SDS011;35268;42.642;23.308;2022-09-09T02:14:09;15.30;;;7.82;;
49392;SDS011;35268;42.642;23.308;2022-09-09T02:19:13;12.13;;;8.20;;
49392;SDS011;35268;42.642;23.308;2022-09-09T02:21:46;10.20;;;7.70;;
49392;SDS011;35268;42.642;23.308;2022-09-09T02:24:12;15.73;;;8.13;;
49392;SDS011;35268;42.642;23.308;2022-09-09T02:26:41;11.60;;;7.75;;
49392;SDS011;35268;42.642;23.308;2022-09-09T02:29:11;10.07;;;7.70;;
49392;SDS011;35268;42.642;23.308;2022-09-09T02:31:41;15.38;;;8.00;;
49392;SDS011;35268;42.642;23.308;2022-09-09T02:34:09;10.75;;;7.80;;
49392;SDS011;35268;42.642;23.308;2022-09-09T02:36:37;12.10;;;7.88;;
49392;SDS011;35268;42.642;23.308;2022-09-09T02:39:06;10.93;;;8.30;;
49392;SDS011;35268;42.642;23.308;2022-09-09T02:41:36;16.65;;;8.52;;
49392;SDS011;35268;42.642;23.308;2022-09-09T02:44:11;17.35;;;8.77;;
49392;SDS011;35268;42.642;23.308;2022-09-09T02:52:17;13.55;;;8.35;;
49392;SDS011;35268;42.642;23.308;2022-09-09T02:54:47;12.18;;;8.32;;
49392;SDS011;35268;42.642;23.308;2022-09-09T02:57:28;15.70;;;8.82;;
49392;SDS011;35268;42.642;23.308;2022-09-09T02:59:57;15.30;;;8.85;;
49392;SDS011;35268;42.642;23.308;2022-09-09T03:02:23;12.55;;;8.95;;
49392;SDS011;35268;42.642;23.308;2022-09-09T03:04:50;12.02;;;8.98;;
49392;SDS011;35268;42.642;23.308;2022-09-09T03:07:16;11.82;;;8.82;;
49392;SDS011;35268;42.642;23.308;2022-09-09T03:09:42;21.08;;;9.07;;
49392;SDS011;35268;42.642;23.308;2022-09-09T03:12:07;16.77;;;10.82;;
49392;SDS011;35268;42.642;23.308;2022-09-09T03:14:33;18.92;;;8.05;;
49392;SDS011;35268;42.642;23.308;2022-09-09T03:16:58;16.35;;;9.10;;
49392;SDS011;35268;42.642;23.308;2022-09-09T03:19:26;13.77;;;9.07;;
49392;SDS011;35268;42.642;23.308;2022-09-09T03:21:52;15.43;;;8.20;;
49392;SDS011;35268;42.642;23.308;2022-09-09T03:24:18;12.05;;;8.75;;
49392;SDS011;35268;42.642;23.308;2022-09-09T03:26:44;18.15;;;9.65;;
49392;SDS011;35268;42.642;23.308;2022-09-09T03:29:10;19.25;;;8.48;;
49392;SDS011;35268;42.642;23.308;2022-09-09T03:31:37;17.50;;;8.98;;
49392;SDS011;35268;42.642;23.308;2022-09-09T03:34:03;13.90;;;9.57;;
49392;SDS011;35268;42.642;23.308;2022-09-09T03:36:29;18.33;;;9.80;;
49392;SDS011;35268;42.642;23.308;2022-09-09T03:38:55;13.05;;;9.32;;
49392;SDS011;35268;42.642;23.308;2022-09-09T03:41:23;15.30;;;9.70;;
49392;SDS011;35268;42.642;23.308;2022-09-09T03:43:50;20.75;;;10.27;;
49392;SDS011;35268;42.642;23.308;2022-09-09T03:46:16;15.73;;;9.23;;
49392;SDS011;35268;42.642;23.308;2022-09-09T03:48:42;17.52;;;9.80;;
49392;SDS011;35268;42.642;23.308;2022-09-09T03:51:08;21.17;;;9.18;;
49392;SDS011;35268;42.642;23.308;2022-09-09T03:53:34;19.08;;;9.15;;
49392;SDS011;35268;42.642;23.308;2022-09-09T03:56:00;13.57;;;9.30;;
49392;SDS011;35268;42.642;23.308;2022-09-09T03:58:26;18.83;;;9.77;;
49392;SDS011;35268;42.642;23.308;2022-09-09T04:03:25;17.30;;;9.63;;
49392;SDS011;35268;42.642;23.308;2022-09-09T04:05:54;16.00;;;9.68;;
49392;SDS011;35268;42.642;23.308;2022-09-09T04:08:20;17.23;;;9.13;;
49392;SDS011;35268;42.642;23.308;2022-09-09T04:10:47;13.98;;;9.35;;
49392;SDS011;35268;42.642;23.308;2022-09-09T04:13:17;15.30;;;10.00;;
49392;SDS011;35268;42.642;23.308;2022-09-09T04:15:43;15.45;;;10.25;;
49392;SDS011;35268;42.642;23.308;2022-09-09T04:18:14;18.17;;;10.90;;
49392;SDS011;35268;42.642;23.308;2022-09-09T04:20:40;18.40;;;11.88;;
49392;SDS011;35268;42.642;23.308;2022-09-09T04:23:05;24.48;;;9.80;;
49392;SDS011;35268;42.642;23.308;2022-09-09T04:25:31;15.20;;;9.23;;
49392;SDS011;35268;42.642;23.308;2022-09-09T04:27:56;10.80;;;8.23;;
49392;SDS011;35268;42.642;23.308;2022-09-09T04:30:23;14.20;;;8.80;;
49392;SDS011;35268;42.642;23.308;2022-09-09T04:32:50;14.60;;;9.52;;
49392;SDS011;35268;42.642;23.308;2022-09-09T04:35:15;14.73;;;8.45;;
49392;SDS011;35268;42.642;23.308;2022-09-09T04:37:41;17.00;;;9.02;;
49392;SDS011;35268;42.642;23.308;2022-09-09T04:40:07;18.13;;;10.05;;
49392;SDS011;35268;42.642;23.308;2022-09-09T04:42:35;14.35;;;10.00;;
49392;SDS011;35268;42.642;23.308;2022-09-09T04:45:01;16.73;;;9.88;;
49392;SDS011;35268;42.642;23.308;2022-09-09T04:47:27;15.95;;;9.48;;
49392;SDS011;35268;42.642;23.308;2022-09-09T04:49:52;14.95;;;10.05;;
49392;SDS011;35268;42.642;23.308;2022-09-09T04:52:19;15.98;;;9.68;;
49392;SDS011;35268;42.642;23.308;2022-09-09T04:54:45;18.50;;;9.57;;
49392;SDS011;35268;42.642;23.308;2022-09-09T04:57:11;15.43;;;10.07;;
49392;SDS011;35268;42.642;23.308;2022-09-09T04:59:37;25.23;;;9.82;;
49392;SDS011;35268;42.642;23.308;2022-09-09T05:02:04;13.90;;;9.65;;
49392;SDS011;35268;42.642;23.308;2022-09-09T05:04:30;20.15;;;12.18;;
49392;SDS011;35268;42.642;23.308;2022-09-09T05:06:56;17.83;;;10.95;;
49392;SDS011;35268;42.642;23.308;2022-09-09T05:09:21;21.85;;;10.88;;
49392;SDS011;35268;42.642;23.308;2022-09-09T05:11:47;22.20;;;10.40;;
49392;SDS011;35268;42.642;23.308;2022-09-09T05:14:12;20.33;;;10.80;;
49392;SDS011;35268;42.642;23.308;2022-09-09T05:16:39;19.60;;;10.23;;
49392;SDS011;35268;42.642;23.308;2022-09-09T05:19:05;17.63;;;11.32;;
49392;SDS011;35268;42.642;23.308;2022-09-09T05:21:33;30.63;;;11.13;;
49392;SDS011;35268;42.642;23.308;2022-09-09T05:23:58;19.52;;;9.88;;
49392;SDS011;35268;42.642;23.308;2022-09-09T05:26:25;21.52;;;9.82;;
49392;SDS011;35268;42.642;23.308;2022-09-09T05:28:51;22.77;;;10.55;;
49392;SDS011;35268;42.642;23.308;2022-09-09T05:31:17;28.55;;;10.80;;
49392;SDS011;35268;42.642;23.308;2022-09-09T05:33:44;42.17;;;12.25;;
49392;SDS011;35268;42.642;23.308;2022-09-09T05:36:12;21.60;;;11.43;;
49392;SDS011;35268;42.642;23.308;2022-09-09T05:38:39;27.92;;;10.50;;
49392;SDS011;35268;42.642;23.308;2022-09-09T05:41:05;33.80;;;11.25;;
49392;SDS011;35268;42.642;23.308;2022-09-09T05:43:32;26.92;;;11.02;;
49392;SDS011;35268;42.642;23.308;2022-09-09T05:45:58;28.85;;;11.77;;
49392;SDS011;35268;42.642;23.308;2022-09-09T05:48:35;30.48;;;11.50;;
49392;SDS011;35268;42.642;23.308;2022-09-09T05:51:06;26.67;;;11.85;;
49392;SDS011;35268;42.642;23.308;2022-09-09T05:53:33;23.08;;;10.98;;
49392;SDS011;35268;42.642;23.308;2022-09-09T05:56:11;19.88;;;11.10;;
49392;SDS011;35268;42.642;23.308;2022-09-09T05:58:58;31.98;;;12.63;;
49392;SDS011;35268;42.642;23.308;2022-09-09T06:01:29;21.35;;;10.57;;
49392;SDS011;35268;42.642;23.308;2022-09-09T06:03:56;17.83;;;11.02;;
49392;SDS011;35268;42.642;23.308;2022-09-09T06:06:23;27.45;;;10.85;;
49392;SDS011;35268;42.642;23.308;2022-09-09T06:08:51;26.38;;;10.93;;
49392;SDS011;35268;42.642;23.308;2022-09-09T06:11:20;34.92;;;11.32;;
49392;SDS011;35268;42.642;23.308;2022-09-09T06:14:01;25.67;;;10.63;;
49392;SDS011;35268;42.642;23.308;2022-09-09T06:16:27;27.08;;;10.07;;
49392;SDS011;35268;42.642;23.308;2022-09-09T06:18:54;23.80;;;9.90;;
49392;SDS011;35268;42.642;23.308;2022-09-09T06:23:48;28.60;;;10.02;;
49392;SDS011;35268;42.642;23.308;2022-09-09T06:26:48;17.25;;;10.18;;
49392;SDS011;35268;42.642;23.308;2022-09-09T06:29:27;18.80;;;10.02;;
49392;SDS011;35268;42.642;23.308;2022-09-09T06:31:52;23.45;;;9.57;;
49392;SDS011;35268;42.642;23.308;2022-09-09T06:34:20;23.38;;;10.00;;
49392;SDS011;35268;42.642;23.308;2022-09-09T06:37:05;21.88;;;10.10;;
49392;SDS011;35268;42.642;23.308;2022-09-09T06:39:40;17.38;;;10.05;;
49392;SDS011;35268;42.642;23.308;2022-09-09T06:42:07;25.10;;;9.32;;
49392;SDS011;35268;42.642;23.308;2022-09-09T06:47:21;23.45;;;8.85;;
49392;SDS011;35268;42.642;23.308;2022-09-09T06:49:56;16.58;;;8.75;;
49392;SDS011;35268;42.642;23.308;2022-09-09T06:52:29;18.88;;;10.07;;
49392;SDS011;35268;42.642;23.308;2022-09-09T06:58:42;21.20;;;10.18;;
49392;SDS011;35268;42.642;23.308;2022-09-09T07:01:12;20.27;;;10.15;;
49392;SDS011;35268;42.642;23.308;2022-09-09T07:03:42;23.90;;;8.68;;
49392;SDS011;35268;42.642;23.308;2022-09-09T07:06:14;11.95;;;8.40;;
49392;SDS011;35268;42.642;23.308;2022-09-09T07:08:42;20.83;;;8.65;;
49392;SDS011;35268;42.642;23.308;2022-09-09T07:11:16;26.73;;;8.57;;
49392;SDS011;35268;42.642;23.308;2022-09-09T07:14:19;18.40;;;8.70;;
49392;SDS011;35268;42.642;23.308;2022-09-09T07:17:04;13.73;;;8.13;;
49392;SDS011;35268;42.642;23.308;2022-09-09T07:19:33;21.83;;;8.55;;
49392;SDS011;35268;42.642;23.308;2022-09-09T07:22:09;18.05;;;7.50;;
49392;SDS011;35268;42.642;23.308;2022-09-09T07:24:37;14.40;;;8.20;;
49392;SDS011;35268;42.642;23.308;2022-09-09T07:27:03;19.63;;;7.63;;
49392;SDS011;35268;42.642;23.308;2022-09-09T07:29:29;16.58;;;7.28;;
49392;SDS011;35268;42.642;23.308;2022-09-09T07:31:54;15.73;;;7.00;;
49392;SDS011;35268;42.642;23.308;2022-09-09T07:34:20;22.08;;;8.27;;
49392;SDS011;35268;42.642;23.308;2022-09-09T07:36:46;14.32;;;6.63;;
49392;SDS011;35268;42.642;23.308;2022-09-09T07:39:12;13.90;;;6.88;;
49392;SDS011;35268;42.642;23.308;2022-09-09T07:41:40;19.35;;;6.45;;
49392;SDS011;35268;42.642;23.308;2022-09-09T07:44:09;13.38;;;7.25;;
49392;SDS011;35268;42.642;23.308;2022-09-09T07:46:37;15.10;;;6.72;;
49392;SDS011;35268;42.642;23.308;2022-09-09T07:49:05;12.73;;;6.32;;
49392;SDS011;35268;42.642;23.308;2022-09-09T07:51:52;17.75;;;7.05;;
49392;SDS011;35268;42.642;23.308;2022-09-09T07:54:17;21.67;;;7.63;;
49392;SDS011;35268;42.642;23.308;2022-09-09T07:59:14;11.40;;;6.13;;
49392;SDS011;35268;42.642;23.308;2022-09-09T08:01:41;22.67;;;6.50;;
49392;SDS011;35268;42.642;23.308;2022-09-09T08:04:14;12.88;;;6.80;;
49392;SDS011;35268;42.642;23.308;2022-09-09T08:06:45;12.68;;;6.43;;
49392;SDS011;35268;42.642;23.308;2022-09-09T08:09:13;13.45;;;6.43;;
49392;SDS011;35268;42.642;23.308;2022-09-09T08:11:39;13.45;;;5.68;;
49392;SDS011;35268;42.642;23.308;2022-09-09T08:14:08;14.23;;;6.18;;
49392;SDS011;35268;42.642;23.308;2022-09-09T08:16:37;12.27;;;5.60;;
49392;SDS011;35268;42.642;23.308;2022-09-09T08:19:05;12.80;;;5.95;;
49392;SDS011;35268;42.642;23.308;2022-09-09T08:21:32;14.43;;;6.50;;
49392;SDS011;35268;42.642;23.308;2022-09-09T08:23:59;12.02;;;6.25;;
49392;SDS011;35268;42.642;23.308;2022-09-09T08:26:27;11.68;;;5.55;;
49392;SDS011;35268;42.642;23.308;2022-09-09T08:28:57;12.20;;;6.43;;
49392;SDS011;35268;42.642;23.308;2022-09-09T08:31:28;10.57;;;5.53;;
49392;SDS011;35268;42.642;23.308;2022-09-09T08:33:57;21.45;;;5.60;;
49392;SDS011;35268;42.642;23.308;2022-09-09T08:36:29;12.30;;;6.33;;
49392;SDS011;35268;42.642;23.308;2022-09-09T08:38:58;11.32;;;5.55;;
49392;SDS011;35268;42.642;23.308;2022-09-09T08:57:58;13.82;;;5.70;;
49392;SDS011;35268;42.642;23.308;2022-09-09T09:04:00;9.15;;;5.47;;
49392;SDS011;35268;42.642;23.308;2022-09-09T09:09:35;12.40;;;5.13;;
49392;SDS011;35268;42.642;23.308;2022-09-09T09:15:23;16.77;;;5.30;;
49392;SDS011;35268;42.642;23.308;2022-09-09T09:17:51;14.50;;;5.68;;
49392;SDS011;35268;42.642;23.308;2022-09-09T09:20:18;16.38;;;5.07;;
49392;SDS011;35268;42.642;23.308;2022-09-09T09:22:52;13.05;;;5.20;;
49392;SDS011;35268;42.642;23.308;2022-09-09T09:25:26;13.50;;;5.10;;
49392;SDS011;35268;42.642;23.308;2022-09-09T09:27:59;16.55;;;5.30;;
49392;SDS011;35268;42.642;23.308;2022-09-09T09:30:34;8.98;;;4.68;;
49392;SDS011;35268;42.642;23.308;2022-09-09T09:33:35;17.33;;;4.75;;
49392;SDS011;35268;42.642;23.308;2022-09-09T09:36:11;16.58;;;5.63;;
49392;SDS011;35268;42.642;23.308;2022-09-09T09:38:50;17.95;;;5.53;;
49392;SDS011;35268;42.642;23.308;2022-09-09T09:41:28;14.82;;;5.35;;
49392;SDS011;35268;42.642;23.308;2022-09-09T09:44:24;10.98;;;4.82;;
49392;SDS011;35268;42.642;23.308;2022-09-09T09:47:16;12.90;;;5.05;;
49392;SDS011;35268;42.642;23.308;2022-09-09T09:49:57;12.18;;;5.13;;
49392;SDS011;35268;42.642;23.308;2022-09-09T09:52:33;7.43;;;4.03;;
49392;SDS011;35268;42.642;23.308;2022-09-09T09:55:02;19.40;;;5.03;;
49392;SDS011;35268;42.642;23.308;2022-09-09T09:57:32;11.52;;;4.47;;
49392;SDS011;35268;42.642;23.308;2022-09-09T10:00:15;11.18;;;5.10;;
49392;SDS011;35268;42.642;23.308;2022-09-09T10:02:43;16.83;;;5.13;;
49392;SDS011;35268;42.642;23.308;2022-09-09T10:05:21;33.03;;;5.40;;
49392;SDS011;35268;42.642;23.308;2022-09-09T10:13:15;9.68;;;4.75;;
49392;SDS011;35268;42.642;23.308;2022-09-09T10:21:16;14.37;;;4.77;;
49392;SDS011;35268;42.642;23.308;2022-09-09T10:35:33;14.85;;;5.25;;
49392;SDS011;35268;42.642;23.308;2022-09-09T10:42:51;12.93;;;4.90;;
49392;SDS011;35268;42.642;23.308;2022-09-09T10:54:24;13.15;;;4.95;;
49392;SDS011;35268;42.642;23.308;2022-09-09T10:57:02;13.32;;;4.95;;
49392;SDS011;35268;42.642;23.308;2022-09-09T10:59:43;11.05;;;4.72;;
49392;SDS011;35268;42.642;23.308;2022-09-09T11:02:16;13.63;;;4.45;;
49392;SDS011;35268;42.642;23.308;2022-09-09T11:05:10;10.10;;;4.43;;
49392;SDS011;35268;42.642;23.308;2022-09-09T11:07:40;11.80;;;5.45;;
49392;SDS011;35268;42.642;23.308;2022-09-09T11:10:16;20.08;;;5.50;;
49392;SDS011;35268;42.642;23.308;2022-09-09T11:12:49;14.82;;;5.30;;
49392;SDS011;35268;42.642;23.308;2022-09-09T11:15:20;19.40;;;5.28;;
49392;SDS011;35268;42.642;23.308;2022-09-09T11:17:55;17.02;;;5.35;;
49392;SDS011;35268;42.642;23.308;2022-09-09T11:20:23;12.15;;;5.43;;
49392;SDS011;35268;42.642;23.308;2022-09-09T11:23:09;18.52;;;5.13;;
49392;SDS011;35268;42.642;23.308;2022-09-09T11:25:45;14.80;;;4.97;;
49392;SDS011;35268;42.642;23.308;2022-09-09T11:42:15;12.70;;;5.57;;
49392;SDS011;35268;42.642;23.308;2022-09-09T11:44:43;19.45;;;5.85;;
49392;SDS011;35268;42.642;23.308;2022-09-09T11:47:26;14.38;;;5.32;;
49392;SDS011;35268;42.642;23.308;2022-09-09T11:52:43;20.80;;;8.05;;
49392;SDS011;35268;42.642;23.308;2022-09-09T11:55:27;14.50;;;6.15;;
49392;SDS011;35268;42.642;23.308;2022-09-09T12:00:35;19.85;;;5.50;;
49392;SDS011;35268;42.642;23.308;2022-09-09T12:06:17;17.58;;;6.00;;
49392;SDS011;35268;42.642;23.308;2022-09-09T12:09:32;7.82;;;5.53;;
49392;SDS011;35268;42.642;23.308;2022-09-09T12:12:04;17.52;;;5.97;;
49392;SDS011;35268;42.642;23.308;2022-09-09T12:15:01;16.92;;;5.93;;
49392;SDS011;35268;42.642;23.308;2022-09-09T12:17:43;12.63;;;5.40;;
49392;SDS011;35268;42.642;23.308;2022-09-09T12:20:23;18.95;;;7.13;;
49392;SDS011;35268;42.642;23.308;2022-09-09T12:34:38;16.42;;;6.10;;
49392;SDS011;35268;42.642;23.308;2022-09-09T12:37:25;17.73;;;5.88;;
49392;SDS011;35268;42.642;23.308;2022-09-09T12:40:23;22.23;;;6.13;;
49392;SDS011;35268;42.642;23.308;2022-09-09T12:42:53;13.95;;;5.93;;
49392;SDS011;35268;42.642;23.308;2022-09-09T12:45:25;11.38;;;5.90;;
49392;SDS011;35268;42.642;23.308;2022-09-09T12:47:59;13.30;;;6.35;;
49392;SDS011;35268;42.642;23.308;2022-09-09T12:50:32;14.20;;;6.10;;
49392;SDS011;35268;42.642;23.308;2022-09-09T12:53:07;15.07;;;6.53;;
49392;SDS011;35268;42.642;23.308;2022-09-09T12:55:48;15.45;;;5.72;;
49392;SDS011;35268;42.642;23.308;2022-09-09T12:58:25;11.85;;;6.53;;
49392;SDS011;35268;42.642;23.308;2022-09-09T13:00:54;12.52;;;5.82;;
49392;SDS011;35268;42.642;23.308;2022-09-09T13:03:24;18.03;;;6.57;;
49392;SDS011;35268;42.642;23.308;2022-09-09T13:05:50;17.98;;;5.95;;
49392;SDS011;35268;42.642;23.308;2022-09-09T13:08:16;17.80;;;6.10;;
49392;SDS011;35268;42.642;23.308;2022-09-09T13:10:50;8.15;;;5.05;;
49392;SDS011;35268;42.642;23.308;2022-09-09T13:13:27;18.98;;;5.07;;
49392;SDS011;35268;42.642;23.308;2022-09-09T13:15:56;17.83;;;5.97;;
49392;SDS011;35268;42.642;23.308;2022-09-09T13:18:28;15.02;;;5.57;;
49392;SDS011;35268;42.642;23.308;2022-09-09T13:20:55;23.85;;;6.15;;
49392;SDS011;35268;42.642;23.308;2022-09-09T13:23:23;18.55;;;6.05;;
49392;SDS011;35268;42.642;23.308;2022-09-09T13:25:57;14.43;;;5.57;;
49392;SDS011;35268;42.642;23.308;2022-09-09T13:28:25;17.80;;;6.00;;
49392;SDS011;35268;42.642;23.308;2022-09-09T13:30:58;20.20;;;6.28;;
49392;SDS011;35268;42.642;23.308;2022-09-09T13:33:39;13.07;;;6.35;;
49392;SDS011;35268;42.642;23.308;2022-09-09T13:36:06;12.57;;;6.47;;
49392;SDS011;35268;42.642;23.308;2022-09-09T13:41:24;17.85;;;6.47;;
49392;SDS011;35268;42.642;23.308;2022-09-09T13:44:14;17.83;;;6.47;;
49392;SDS011;35268;42.642;23.308;2022-09-09T13:46:45;13.65;;;6.47;;
49392;SDS011;35268;42.642;23.308;2022-09-09T13:54:02;14.88;;;5.82;;
49392;SDS011;35268;42.642;23.308;2022-09-09T13:56:35;21.02;;;6.50;;
49392;SDS011;35268;42.642;23.308;2022-09-09T13:59:02;22.10;;;6.68;;
49392;SDS011;35268;42.642;23.308;2022-09-09T14:01:29;26.65;;;6.32;;
49392;SDS011;35268;42.642;23.308;2022-09-09T14:03:54;16.25;;;6.43;;
49392;SDS011;35268;42.642;23.308;2022-09-09T14:06:20;23.00;;;7.82;;
49392;SDS011;35268;42.642;23.308;2022-09-09T14:08:49;14.25;;;6.13;;
49392;SDS011;35268;42.642;23.308;2022-09-09T14:11:16;16.85;;;6.15;;
49392;SDS011;35268;42.642;23.308;2022-09-09T14:13:42;17.60;;;5.60;;
49392;SDS011;35268;42.642;23.308;2022-09-09T14:16:07;10.27;;;5.78;;
49392;SDS011;35268;42.642;23.308;2022-09-09T14:18:33;16.15;;;5.97;;
49392;SDS011;35268;42.642;23.308;2022-09-09T14:20:59;16.30;;;5.50;;
49392;SDS011;35268;42.642;23.308;2022-09-09T14:23:25;19.35;;;5.70;;
49392;SDS011;35268;42.642;23.308;2022-09-09T14:25:50;17.13;;;6.10;;
49392;SDS011;35268;42.642;23.308;2022-09-09T14:28:16;19.58;;;6.53;;
49392;SDS011;35268;42.642;23.308;2022-09-09T14:30:42;16.10;;;5.90;;
49392;SDS011;35268;42.642;23.308;2022-09-09T14:33:10;19.10;;;6.57;;
49392;SDS011;35268;42.642;23.308;2022-09-09T14:35:37;13.82;;;6.10;;
49392;SDS011;35268;42.642;23.308;2022-09-09T14:38:03;10.88;;;5.50;;
49392;SDS011;35268;42.642;23.308;2022-09-09T14:40:30;16.45;;;6.35;;
49392;SDS011;35268;42.642;23.308;2022-09-09T14:42:55;14.55;;;6.32;;
49392;SDS011;35268;42.642;23.308;2022-09-09T14:45:21;13.88;;;5.63;;
49392;SDS011;35268;42.642;23.308;2022-09-09T14:47:49;34.53;;;7.47;;
49392;SDS011;35268;42.642;23.308;2022-09-09T14:50:14;20.63;;;7.22;;
49392;SDS011;35268;42.642;23.308;2022-09-09T14:52:40;13.02;;;5.43;;
49392;SDS011;35268;42.642;23.308;2022-09-09T14:55:05;21.73;;;5.55;;
49392;SDS011;35268;42.642;23.308;2022-09-09T14:57:32;12.50;;;5.70;;
49392;SDS011;35268;42.642;23.308;2022-09-09T14:59:57;17.17;;;5.82;;
49392;SDS011;35268;42.642;23.308;2022-09-09T15:02:23;14.98;;;6.10;;
49392;SDS011;35268;42.642;23.308;2022-09-09T15:04:48;20.08;;;6.68;;
49392;SDS011;35268;42.642;23.308;2022-09-09T15:07:15;15.70;;;5.38;;
49392;SDS011;35268;42.642;23.308;2022-09-09T15:09:42;22.60;;;5.93;;
49392;SDS011;35268;42.642;23.308;2022-09-09T15:12:07;24.05;;;6.43;;
49392;SDS011;35268;42.642;23.308;2022-09-09T15:14:33;16.35;;;5.63;;
49392;SDS011;35268;42.642;23.308;2022-09-09T15:16:59;18.17;;;5.85;;
49392;SDS011;35268;42.642;23.308;2022-09-09T15:19:24;14.93;;;5.60;;
49392;SDS011;35268;42.642;23.308;2022-09-09T15:21:49;15.55;;;6.03;;
49392;SDS011;35268;42.642;23.308;2022-09-09T15:24:15;25.38;;;7.43;;
49392;SDS011;35268;42.642;23.308;2022-09-09T15:26:41;27.20;;;7.95;;
49392;SDS011;35268;42.642;23.308;2022-09-09T15:29:06;23.25;;;9.60;;
49392;SDS011;35268;42.642;23.308;2022-09-09T15:31:33;17.60;;;7.68;;
49392;SDS011;35268;42.642;23.308;2022-09-09T15:33:59;22.90;;;6.68;;
49392;SDS011;35268;42.642;23.308;2022-09-09T15:36:27;19.02;;;5.63;;
49392;SDS011;35268;42.642;23.308;2022-09-09T15:38:57;19.23;;;6.72;;
49392;SDS011;35268;42.642;23.308;2022-09-09T15:41:27;14.45;;;6.03;;
49392;SDS011;35268;42.642;23.308;2022-09-09T15:43:54;12.77;;;5.82;;
49392;SDS011;35268;42.642;23.308;2022-09-09T15:46:28;18.48;;;6.82;;
49392;SDS011;35268;42.642;23.308;2022-09-09T15:48:55;17.77;;;6.40;;
49392;SDS011;35268;42.642;23.308;2022-09-09T15:51:23;12.38;;;6.07;;
49392;SDS011;35268;42.642;23.308;2022-09-09T15:53:57;17.73;;;6.47;;
49392;SDS011;35268;42.642;23.308;2022-09-09T15:56:27;27.75;;;7.10;;
49392;SDS011;35268;42.642;23.308;2022-09-09T15:58:55;17.83;;;7.65;;
49392;SDS011;35268;42.642;23.308;2022-09-09T16:01:22;13.90;;;6.10;;
49392;SDS011;35268;42.642;23.308;2022-09-09T16:03:48;13.55;;;5.82;;
49392;SDS011;35268;42.642;23.308;2022-09-09T16:06:16;23.05;;;6.47;;
49392;SDS011;35268;42.642;23.308;2022-09-09T16:08:44;12.32;;;6.53;;
49392;SDS011;35268;42.642;23.308;2022-09-09T16:13:37;16.23;;;6.45;;
49392;SDS011;35268;42.642;23.308;2022-09-09T16:16:04;17.38;;;6.55;;
49392;SDS011;35268;42.642;23.308;2022-09-09T16:18:34;10.82;;;6.10;;
49392;SDS011;35268;42.642;23.308;2022-09-09T16:21:01;17.40;;;6.75;;
49392;SDS011;35268;42.642;23.308;2022-09-09T16:23:26;17.70;;;7.65;;
49392;SDS011;35268;42.642;23.308;2022-09-09T16:25:55;19.75;;;7.15;;
49392;SDS011;35268;42.642;23.308;2022-09-09T16:28:21;19.45;;;7.95;;
49392;SDS011;35268;42.642;23.308;2022-09-09T16:30:47;21.67;;;6.95;;
49392;SDS011;35268;42.642;23.308;2022-09-09T16:33:13;16.17;;;7.07;;
49392;SDS011;35268;42.642;23.308;2022-09-09T16:35:39;11.98;;;7.18;;
49392;SDS011;35268;42.642;23.308;2022-09-09T16:38:05;24.02;;;7.50;;
49392;SDS011;35268;42.642;23.308;2022-09-09T16:40:33;26.05;;;8.30;;
49392;SDS011;35268;42.642;23.308;2022-09-09T16:43:06;19.40;;;6.65;;
49392;SDS011;35268;42.642;23.308;2022-09-09T16:45:32;14.77;;;6.13;;
49392;SDS011;35268;42.642;23.308;2022-09-09T16:48:01;21.38;;;7.05;;
49392;SDS011;35268;42.642;23.308;2022-09-09T16:50:27;14.82;;;6.80;;
49392;SDS011;35268;42.642;23.308;2022-09-09T16:52:52;15.60;;;7.63;;
49392;SDS011;35268;42.642;23.308;2022-09-09T16:55:18;18.27;;;8.18;;
49392;SDS011;35268;42.642;23.308;2022-09-09T16:57:45;14.35;;;7.60;;
49392;SDS011;35268;42.642;23.308;2022-09-09T17:00:13;14.82;;;8.05;;
49392;SDS011;35268;42.642;23.308;2022-09-09T17:02:40;17.67;;;8.07;;
49392;SDS011;35268;42.642;23.308;2022-09-09T17:05:05;20.90;;;8.25;;
49392;SDS011;35268;42.642;23.308;2022-09-09T17:07:31;18.98;;;8.68;;
49392;SDS011;35268;42.642;23.308;2022-09-09T17:09:57;25.08;;;9.57;;
49392;SDS011;35268;42.642;23.308;2022-09-09T17:12:23;14.25;;;8.10;;
49392;SDS011;35268;42.642;23.308;2022-09-09T17:14:49;20.02;;;9.32;;
49392;SDS011;35268;42.642;23.308;2022-09-09T17:17:15;16.83;;;8.60;;
49392;SDS011;35268;42.642;23.308;2022-09-09T17:19:42;25.90;;;9.20;;
49392;SDS011;35268;42.642;23.308;2022-09-09T17:22:08;17.15;;;7.88;;
49392;SDS011;35268;42.642;23.308;2022-09-09T17:24:33;14.90;;;7.80;;
49392;SDS011;35268;42.642;23.308;2022-09-09T17:26:59;16.50;;;7.32;;
49392;SDS011;35268;42.642;23.308;2022-09-09T17:29:27;13.80;;;8.13;;
49392;SDS011;35268;42.642;23.308;2022-09-09T17:31:52;17.80;;;9.32;;
49392;SDS011;35268;42.642;23.308;2022-09-09T17:34:18;18.42;;;8.38;;
49392;SDS011;35268;42.642;23.308;2022-09-09T17:36:44;16.73;;;7.57;;